sensor_id;sensor_type;location;lat;lon;timestamp;temperature;humidity
52509;DHT22;38420;53.150;6.370;2023-01-13T00:01:11;8.90;99.90
52509;DHT22;38420;53.150;6.370;2023-01-13T00:03:37;8.80;99.90
52509;DHT22;38420;53.150;6.370;2023-01-13T00:06:04;8.70;99.90
52509;DHT22;38420;53.150;6.370;2023-01-13T00:08:30;8.70;99.90
52509;DHT22;38420;53.150;6.370;2023-01-13T00:10:56;8.70;99.90
52509;DHT22;38420;53.150;6.370;2023-01-13T00:13:22;8.70;99.90
52509;DHT22;38420;53.150;6.370;2023-01-13T00:16:05;8.70;99.90
52509;DHT22;38420;53.150;6.370;2023-01-13T00:18:32;8.60;99.90
52509;DHT22;38420;53.150;6.370;2023-01-13T00:21:03;8.50;99.90
52509;DHT22;38420;53.150;6.370;2023-01-13T00:23:30;8.50;99.90
52509;DHT22;38420;53.150;6.370;2023-01-13T00:25:58;8.60;99.90
52509;DHT22;38420;53.150;6.370;2023-01-13T00:28:24;8.50;99.90
52509;DHT22;38420;53.150;6.370;2023-01-13T00:30:50;8.40;99.90
52509;DHT22;38420;53.150;6.370;2023-01-13T00:33:16;8.50;99.90
52509;DHT22;38420;53.150;6.370;2023-01-13T00:35:41;8.50;99.90
52509;DHT22;38420;53.150;6.370;2023-01-13T00:38:07;8.40;99.90
52509;DHT22;38420;53.150;6.370;2023-01-13T00:40:33;8.40;99.90
52509;DHT22;38420;53.150;6.370;2023-01-13T00:42:58;8.40;99.90
52509;DHT22;38420;53.150;6.370;2023-01-13T00:45:43;8.30;99.90
52509;DHT22;38420;53.150;6.370;2023-01-13T00:48:09;8.30;99.90
52509;DHT22;38420;53.150;6.370;2023-01-13T00:50:34;8.40;99.90
52509;DHT22;38420;53.150;6.370;2023-01-13T00:53:00;8.30;99.90
52509;DHT22;38420;53.150;6.370;2023-01-13T00:55:26;8.30;99.90
52509;DHT22;38420;53.150;6.370;2023-01-13T00:57:51;8.30;99.90
52509;DHT22;38420;53.150;6.370;2023-01-13T01:00:17;8.20;99.90
52509;DHT22;38420;53.150;6.370;2023-01-13T01:02:43;8.20;99.90
52509;DHT22;38420;53.150;6.370;2023-01-13T01:05:09;8.10;99.90
52509;DHT22;38420;53.150;6.370;2023-01-13T01:07:34;8.10;99.90
52509;DHT22;38420;53.150;6.370;2023-01-13T01:10:00;8.10;99.90
52509;DHT22;38420;53.150;6.370;2023-01-13T01:12:26;8.20;99.90
52509;DHT22;38420;53.150;6.370;2023-01-13T01:14:52;8.20;99.90
52509;DHT22;38420;53.150;6.370;2023-01-13T01:17:17;8.20;99.90
52509;DHT22;38420;53.150;6.370;2023-01-13T01:19:43;8.10;99.90
52509;DHT22;38420;53.150;6.370;2023-01-13T01:22:08;8.10;99.90
52509;DHT22;38420;53.150;6.370;2023-01-13T01:24:34;8.10;99.90
52509;DHT22;38420;53.150;6.370;2023-01-13T01:27:00;8.10;99.90
52509;DHT22;38420;53.150;6.370;2023-01-13T01:29:25;8.00;99.90
52509;DHT22;38420;53.150;6.370;2023-01-13T01:31:51;8.10;99.90
52509;DHT22;38420;53.150;6.370;2023-01-13T01:34:17;8.20;99.90
52509;DHT22;38420;53.150;6.370;2023-01-13T01:36:42;8.10;99.90
52509;DHT22;38420;53.150;6.370;2023-01-13T01:39:08;8.10;99.90
52509;DHT22;38420;53.150;6.370;2023-01-13T01:41:35;8.10;99.90
52509;DHT22;38420;53.150;6.370;2023-01-13T01:46:50;8.10;99.90
52509;DHT22;38420;53.150;6.370;2023-01-13T01:49:35;8.10;99.90
52509;DHT22;38420;53.150;6.370;2023-01-13T01:52:12;8.10;99.90
52509;DHT22;38420;53.150;6.370;2023-01-13T01:55:31;8.10;99.90
52509;DHT22;38420;53.150;6.370;2023-01-13T01:57:54;8.10;99.90
52509;DHT22;38420;53.150;6.370;2023-01-13T02:00:22;8.20;99.90
52509;DHT22;38420;53.150;6.370;2023-01-13T02:02:49;8.20;99.90
52509;DHT22;38420;53.150;6.370;2023-01-13T02:05:16;8.20;99.90
52509;DHT22;38420;53.150;6.370;2023-01-13T02:07:43;8.20;99.90
52509;DHT22;38420;53.150;6.370;2023-01-13T02:10:13;8.20;99.90
52509;DHT22;38420;53.150;6.370;2023-01-13T02:12:41;8.20;99.90
52509;DHT22;38420;53.150;6.370;2023-01-13T02:15:11;8.20;99.90
52509;DHT22;38420;53.150;6.370;2023-01-13T02:35:33;8.30;99.90
52509;DHT22;38420;53.150;6.370;2023-01-13T02:38:02;8.30;99.90
52509;DHT22;38420;53.150;6.370;2023-01-13T02:40:33;8.20;99.90
52509;DHT22;38420;53.150;6.370;2023-01-13T02:43:02;8.20;99.90
52509;DHT22;38420;53.150;6.370;2023-01-13T02:45:52;8.30;99.90
52509;DHT22;38420;53.150;6.370;2023-01-13T02:48:21;8.30;99.90
52509;DHT22;38420;53.150;6.370;2023-01-13T02:51:11;8.30;99.90
52509;DHT22;38420;53.150;6.370;2023-01-13T02:53:42;8.30;99.90
52509;DHT22;38420;53.150;6.370;2023-01-13T02:56:09;8.40;99.90
52509;DHT22;38420;53.150;6.370;2023-01-13T02:58:36;8.30;99.90
52509;DHT22;38420;53.150;6.370;2023-01-13T03:01:03;8.40;99.90
52509;DHT22;38420;53.150;6.370;2023-01-13T03:03:29;8.40;99.90
52509;DHT22;38420;53.150;6.370;2023-01-13T03:08:53;8.50;99.90
52509;DHT22;38420;53.150;6.370;2023-01-13T03:11:27;8.50;99.90
52509;DHT22;38420;53.150;6.370;2023-01-13T03:14:39;8.50;99.90
52509;DHT22;38420;53.150;6.370;2023-01-13T03:17:30;8.50;99.90
52509;DHT22;38420;53.150;6.370;2023-01-13T03:20:08;8.30;99.90
52509;DHT22;38420;53.150;6.370;2023-01-13T03:22:58;8.30;99.90
52509;DHT22;38420;53.150;6.370;2023-01-13T03:25:28;8.30;99.90
52509;DHT22;38420;53.150;6.370;2023-01-13T03:28:03;8.40;99.90
52509;DHT22;38420;53.150;6.370;2023-01-13T03:30:43;8.30;99.90
52509;DHT22;38420;53.150;6.370;2023-01-13T03:33:30;8.30;99.90
52509;DHT22;38420;53.150;6.370;2023-01-13T03:36:01;8.30;99.90
52509;DHT22;38420;53.150;6.370;2023-01-13T03:38:32;8.50;99.90
52509;DHT22;38420;53.150;6.370;2023-01-13T03:41:07;8.40;99.90
52509;DHT22;38420;53.150;6.370;2023-01-13T03:43:50;8.40;99.90
52509;DHT22;38420;53.150;6.370;2023-01-13T03:49:06;8.50;99.90
52509;DHT22;38420;53.150;6.370;2023-01-13T03:51:36;8.50;99.90
52509;DHT22;38420;53.150;6.370;2023-01-13T03:54:06;8.40;99.90
52509;DHT22;38420;53.150;6.370;2023-01-13T03:56:58;8.50;99.90
52509;DHT22;38420;53.150;6.370;2023-01-13T03:59:30;8.50;99.90
52509;DHT22;38420;53.150;6.370;2023-01-13T04:02:13;8.60;99.90
52509;DHT22;38420;53.150;6.370;2023-01-13T04:04:59;8.50;99.90
52509;DHT22;38420;53.150;6.370;2023-01-13T04:07:45;8.50;99.90
52509;DHT22;38420;53.150;6.370;2023-01-13T04:10:13;8.50;99.90
52509;DHT22;38420;53.150;6.370;2023-01-13T04:12:49;8.40;99.90
52509;DHT22;38420;53.150;6.370;2023-01-13T04:15:27;8.50;99.90
52509;DHT22;38420;53.150;6.370;2023-01-13T04:17:54;8.30;99.90
52509;DHT22;38420;53.150;6.370;2023-01-13T04:20:25;8.40;99.90
52509;DHT22;38420;53.150;6.370;2023-01-13T04:22:51;8.40;99.90
52509;DHT22;38420;53.150;6.370;2023-01-13T04:25:16;8.30;99.90
52509;DHT22;38420;53.150;6.370;2023-01-13T04:27:42;8.30;99.90
52509;DHT22;38420;53.150;6.370;2023-01-13T04:30:08;8.30;99.90
52509;DHT22;38420;53.150;6.370;2023-01-13T04:32:34;8.30;99.90
52509;DHT22;38420;53.150;6.370;2023-01-13T04:34:59;8.30;99.90
52509;DHT22;38420;53.150;6.370;2023-01-13T04:37:25;8.40;99.90
52509;DHT22;38420;53.150;6.370;2023-01-13T04:39:50;8.30;99.90
52509;DHT22;38420;53.150;6.370;2023-01-13T04:42:16;8.30;99.90
52509;DHT22;38420;53.150;6.370;2023-01-13T04:44:42;8.50;99.90
52509;DHT22;38420;53.150;6.370;2023-01-13T04:47:07;8.40;99.90
52509;DHT22;38420;53.150;6.370;2023-01-13T04:49:33;8.40;99.90
52509;DHT22;38420;53.150;6.370;2023-01-13T04:51:58;8.50;99.90
52509;DHT22;38420;53.150;6.370;2023-01-13T04:54:24;8.50;99.90
52509;DHT22;38420;53.150;6.370;2023-01-13T04:56:49;8.50;99.90
52509;DHT22;38420;53.150;6.370;2023-01-13T04:59:15;8.60;99.90
52509;DHT22;38420;53.150;6.370;2023-01-13T05:01:41;8.50;99.90
52509;DHT22;38420;53.150;6.370;2023-01-13T05:04:07;8.60;99.90
52509;DHT22;38420;53.150;6.370;2023-01-13T05:06:33;8.60;99.90
52509;DHT22;38420;53.150;6.370;2023-01-13T05:08:58;8.60;99.90
52509;DHT22;38420;53.150;6.370;2023-01-13T05:11:24;8.60;99.90
52509;DHT22;38420;53.150;6.370;2023-01-13T05:14:08;8.60;99.90
52509;DHT22;38420;53.150;6.370;2023-01-13T05:16:54;8.60;99.90
52509;DHT22;38420;53.150;6.370;2023-01-13T05:19:36;8.70;99.90
52509;DHT22;38420;53.150;6.370;2023-01-13T05:22:05;8.60;99.90
52509;DHT22;38420;53.150;6.370;2023-01-13T05:24:49;8.60;99.90
52509;DHT22;38420;53.150;6.370;2023-01-13T05:27:34;8.70;99.90
52509;DHT22;38420;53.150;6.370;2023-01-13T05:29:59;8.70;99.90
52509;DHT22;38420;53.150;6.370;2023-01-13T05:32:25;8.70;99.90
52509;DHT22;38420;53.150;6.370;2023-01-13T05:34:54;8.70;99.90
52509;DHT22;38420;53.150;6.370;2023-01-13T05:37:21;8.70;99.90
52509;DHT22;38420;53.150;6.370;2023-01-13T05:39:46;8.60;99.90
52509;DHT22;38420;53.150;6.370;2023-01-13T05:42:30;8.70;99.90
52509;DHT22;38420;53.150;6.370;2023-01-13T05:45:15;8.70;99.90
52509;DHT22;38420;53.150;6.370;2023-01-13T05:47:41;8.70;99.90
52509;DHT22;38420;53.150;6.370;2023-01-13T05:50:07;8.70;99.90
52509;DHT22;38420;53.150;6.370;2023-01-13T05:52:32;8.70;99.90
52509;DHT22;38420;53.150;6.370;2023-01-13T05:54:58;8.70;99.90
52509;DHT22;38420;53.150;6.370;2023-01-13T05:57:24;8.70;99.90
52509;DHT22;38420;53.150;6.370;2023-01-13T05:59:49;8.70;99.90
52509;DHT22;38420;53.150;6.370;2023-01-13T06:02:15;8.60;99.90
52509;DHT22;38420;53.150;6.370;2023-01-13T06:04:40;8.70;99.90
52509;DHT22;38420;53.150;6.370;2023-01-13T06:07:06;8.60;99.90
52509;DHT22;38420;53.150;6.370;2023-01-13T06:09:31;8.60;99.90
52509;DHT22;38420;53.150;6.370;2023-01-13T06:11:57;8.60;99.90
52509;DHT22;38420;53.150;6.370;2023-01-13T06:14:23;8.60;99.90
52509;DHT22;38420;53.150;6.370;2023-01-13T06:16:48;8.60;99.90
52509;DHT22;38420;53.150;6.370;2023-01-13T06:19:14;8.70;99.90
52509;DHT22;38420;53.150;6.370;2023-01-13T06:21:40;8.70;99.90
52509;DHT22;38420;53.150;6.370;2023-01-13T06:24:06;8.60;99.90
52509;DHT22;38420;53.150;6.370;2023-01-13T06:26:37;8.70;99.90
52509;DHT22;38420;53.150;6.370;2023-01-13T06:29:04;8.70;99.90
52509;DHT22;38420;53.150;6.370;2023-01-13T06:31:30;8.60;99.90
52509;DHT22;38420;53.150;6.370;2023-01-13T06:34:08;8.60;99.90
52509;DHT22;38420;53.150;6.370;2023-01-13T06:36:39;8.50;99.90
52509;DHT22;38420;53.150;6.370;2023-01-13T06:39:07;8.50;99.90
52509;DHT22;38420;53.150;6.370;2023-01-13T06:41:33;8.40;99.90
52509;DHT22;38420;53.150;6.370;2023-01-13T06:44:18;8.30;99.90
52509;DHT22;38420;53.150;6.370;2023-01-13T06:46:45;8.20;99.90
52509;DHT22;38420;53.150;6.370;2023-01-13T06:49:11;8.20;99.90
52509;DHT22;38420;53.150;6.370;2023-01-13T06:51:37;8.30;99.90
52509;DHT22;38420;53.150;6.370;2023-01-13T06:54:03;8.10;99.90
52509;DHT22;38420;53.150;6.370;2023-01-13T06:56:29;8.00;99.90
52509;DHT22;38420;53.150;6.370;2023-01-13T06:58:54;7.90;99.90
52509;DHT22;38420;53.150;6.370;2023-01-13T07:01:20;8.10;99.90
52509;DHT22;38420;53.150;6.370;2023-01-13T07:03:45;8.00;99.90
52509;DHT22;38420;53.150;6.370;2023-01-13T07:06:11;7.80;99.90
52509;DHT22;38420;53.150;6.370;2023-01-13T07:08:36;7.60;99.90
52509;DHT22;38420;53.150;6.370;2023-01-13T07:11:02;7.70;99.90
52509;DHT22;38420;53.150;6.370;2023-01-13T07:13:28;7.70;99.90
52509;DHT22;38420;53.150;6.370;2023-01-13T07:16:29;7.50;99.90
52509;DHT22;38420;53.150;6.370;2023-01-13T07:18:55;7.60;99.90
52509;DHT22;38420;53.150;6.370;2023-01-13T07:21:21;7.60;99.90
52509;DHT22;38420;53.150;6.370;2023-01-13T07:23:47;7.20;99.90
52509;DHT22;38420;53.150;6.370;2023-01-13T07:26:13;7.50;99.90
52509;DHT22;38420;53.150;6.370;2023-01-13T07:28:39;7.60;99.90
52509;DHT22;38420;53.150;6.370;2023-01-13T07:31:15;7.50;99.90
52509;DHT22;38420;53.150;6.370;2023-01-13T07:33:41;7.50;99.90
52509;DHT22;38420;53.150;6.370;2023-01-13T07:36:07;7.20;99.90
52509;DHT22;38420;53.150;6.370;2023-01-13T07:38:33;7.00;99.90
52509;DHT22;38420;53.150;6.370;2023-01-13T07:40:59;7.40;99.90
52509;DHT22;38420;53.150;6.370;2023-01-13T07:43:45;7.30;99.90
52509;DHT22;38420;53.150;6.370;2023-01-13T07:46:11;7.00;99.90
52509;DHT22;38420;53.150;6.370;2023-01-13T07:48:36;7.00;99.90
52509;DHT22;38420;53.150;6.370;2023-01-13T07:51:06;7.40;99.90
52509;DHT22;38420;53.150;6.370;2023-01-13T07:53:33;7.00;99.90
52509;DHT22;38420;53.150;6.370;2023-01-13T07:55:59;7.30;99.90
52509;DHT22;38420;53.150;6.370;2023-01-13T07:58:26;7.40;99.90
52509;DHT22;38420;53.150;6.370;2023-01-13T08:00:53;7.10;99.90
52509;DHT22;38420;53.150;6.370;2023-01-13T08:03:19;7.20;99.90
52509;DHT22;38420;53.150;6.370;2023-01-13T08:05:45;7.20;99.90
52509;DHT22;38420;53.150;6.370;2023-01-13T08:08:11;7.40;99.90
52509;DHT22;38420;53.150;6.370;2023-01-13T08:10:37;7.40;99.90
52509;DHT22;38420;53.150;6.370;2023-01-13T08:13:09;7.70;99.90
52509;DHT22;38420;53.150;6.370;2023-01-13T08:15:42;7.70;99.90
52509;DHT22;38420;53.150;6.370;2023-01-13T08:18:08;7.70;99.90
52509;DHT22;38420;53.150;6.370;2023-01-13T08:20:33;7.50;99.90
52509;DHT22;38420;53.150;6.370;2023-01-13T08:22:59;7.50;99.90
52509;DHT22;38420;53.150;6.370;2023-01-13T08:25:26;7.60;99.90
52509;DHT22;38420;53.150;6.370;2023-01-13T08:27:53;7.80;99.90
52509;DHT22;38420;53.150;6.370;2023-01-13T08:30:19;7.70;99.90
52509;DHT22;38420;53.150;6.370;2023-01-13T08:32:46;7.70;99.90
52509;DHT22;38420;53.150;6.370;2023-01-13T08:35:12;8.60;99.90
52509;DHT22;38420;53.150;6.370;2023-01-13T08:37:38;7.90;99.90
52509;DHT22;38420;53.150;6.370;2023-01-13T08:40:05;7.90;99.90
52509;DHT22;38420;53.150;6.370;2023-01-13T08:42:31;8.00;99.90
52509;DHT22;38420;53.150;6.370;2023-01-13T08:44:56;7.90;99.90
52509;DHT22;38420;53.150;6.370;2023-01-13T08:47:23;8.10;99.90
52509;DHT22;38420;53.150;6.370;2023-01-13T08:49:48;8.00;99.90
52509;DHT22;38420;53.150;6.370;2023-01-13T08:52:14;7.90;99.90
52509;DHT22;38420;53.150;6.370;2023-01-13T08:54:40;7.90;99.90
52509;DHT22;38420;53.150;6.370;2023-01-13T08:57:06;8.00;99.90
52509;DHT22;38420;53.150;6.370;2023-01-13T08:59:32;8.00;99.90
52509;DHT22;38420;53.150;6.370;2023-01-13T09:01:57;8.00;99.90
52509;DHT22;38420;53.150;6.370;2023-01-13T09:04:25;8.10;99.90
52509;DHT22;38420;53.150;6.370;2023-01-13T09:06:52;7.80;99.90
52509;DHT22;38420;53.150;6.370;2023-01-13T09:09:18;7.80;99.90
52509;DHT22;38420;53.150;6.370;2023-01-13T09:11:45;7.90;99.90
52509;DHT22;38420;53.150;6.370;2023-01-13T09:14:32;7.70;99.90
52509;DHT22;38420;53.150;6.370;2023-01-13T09:16:58;7.50;99.90
52509;DHT22;38420;53.150;6.370;2023-01-13T09:19:25;7.60;99.90
52509;DHT22;38420;53.150;6.370;2023-01-13T09:21:50;7.40;99.90
52509;DHT22;38420;53.150;6.370;2023-01-13T09:24:17;7.30;99.90
52509;DHT22;38420;53.150;6.370;2023-01-13T09:26:43;7.50;99.90
52509;DHT22;38420;53.150;6.370;2023-01-13T09:29:09;7.50;99.90
52509;DHT22;38420;53.150;6.370;2023-01-13T09:31:34;7.40;99.90
52509;DHT22;38420;53.150;6.370;2023-01-13T09:34:01;7.50;99.90
52509;DHT22;38420;53.150;6.370;2023-01-13T09:36:45;7.90;99.90
52509;DHT22;38420;53.150;6.370;2023-01-13T09:39:11;7.60;99.90
52509;DHT22;38420;53.150;6.370;2023-01-13T09:41:41;7.30;99.90
52509;DHT22;38420;53.150;6.370;2023-01-13T09:47:12;7.50;99.90
52509;DHT22;38420;53.150;6.370;2023-01-13T09:49:41;7.20;99.90
52509;DHT22;38420;53.150;6.370;2023-01-13T09:52:13;7.10;99.90
52509;DHT22;38420;53.150;6.370;2023-01-13T09:54:48;7.20;99.90
52509;DHT22;38420;53.150;6.370;2023-01-13T09:57:17;7.10;99.90
52509;DHT22;38420;53.150;6.370;2023-01-13T09:59:43;7.30;99.90
52509;DHT22;38420;53.150;6.370;2023-01-13T10:07:43;7.50;99.90
52509;DHT22;38420;53.150;6.370;2023-01-13T10:10:17;7.00;99.90
52509;DHT22;38420;53.150;6.370;2023-01-13T10:12:44;6.90;99.90
52509;DHT22;38420;53.150;6.370;2023-01-13T10:15:30;7.00;99.90
52509;DHT22;38420;53.150;6.370;2023-01-13T10:21:16;7.30;99.90
52509;DHT22;38420;53.150;6.370;2023-01-13T10:27:04;7.70;99.90
52509;DHT22;38420;53.150;6.370;2023-01-13T10:29:23;7.20;99.90
52509;DHT22;38420;53.150;6.370;2023-01-13T10:31:51;7.40;99.90
52509;DHT22;38420;53.150;6.370;2023-01-13T10:34:17;7.70;99.90
52509;DHT22;38420;53.150;6.370;2023-01-13T10:39:44;7.40;99.90
52509;DHT22;38420;53.150;6.370;2023-01-13T10:42:17;7.70;99.90
52509;DHT22;38420;53.150;6.370;2023-01-13T10:44:55;7.40;99.90
52509;DHT22;38420;53.150;6.370;2023-01-13T10:52:38;7.70;99.90
52509;DHT22;38420;53.150;6.370;2023-01-13T10:55:29;7.40;99.90
52509;DHT22;38420;53.150;6.370;2023-01-13T10:57:53;8.70;99.90
52509;DHT22;38420;53.150;6.370;2023-01-13T11:00:33;7.90;99.90
52509;DHT22;38420;53.150;6.370;2023-01-13T11:03:21;7.60;99.90
52509;DHT22;38420;53.150;6.370;2023-01-13T11:05:49;7.90;99.90
52509;DHT22;38420;53.150;6.370;2023-01-13T11:08:16;7.80;99.90
52509;DHT22;38420;53.150;6.370;2023-01-13T11:10:49;7.70;99.90
52509;DHT22;38420;53.150;6.370;2023-01-13T11:13:17;7.80;99.90
52509;DHT22;38420;53.150;6.370;2023-01-13T11:18:37;8.00;99.90
52509;DHT22;38420;53.150;6.370;2023-01-13T11:21:29;7.80;99.90
52509;DHT22;38420;53.150;6.370;2023-01-13T11:24:13;8.10;99.90
52509;DHT22;38420;53.150;6.370;2023-01-13T11:26:50;8.00;99.90
52509;DHT22;38420;53.150;6.370;2023-01-13T11:29:25;7.90;99.90
52509;DHT22;38420;53.150;6.370;2023-01-13T11:31:54;8.00;99.90
52509;DHT22;38420;53.150;6.370;2023-01-13T11:34:32;8.20;99.90
52509;DHT22;38420;53.150;6.370;2023-01-13T11:37:01;8.30;99.90
52509;DHT22;38420;53.150;6.370;2023-01-13T11:42:25;8.20;99.90
52509;DHT22;38420;53.150;6.370;2023-01-13T11:47:25;8.30;99.90
52509;DHT22;38420;53.150;6.370;2023-01-13T11:49:51;8.50;99.90
52509;DHT22;38420;53.150;6.370;2023-01-13T11:52:20;8.60;99.90
52509;DHT22;38420;53.150;6.370;2023-01-13T11:57:51;8.60;99.90
52509;DHT22;38420;53.150;6.370;2023-01-13T12:03:23;8.50;99.90
52509;DHT22;38420;53.150;6.370;2023-01-13T12:08:59;8.60;99.90
52509;DHT22;38420;53.150;6.370;2023-01-13T12:11:45;8.40;99.90
52509;DHT22;38420;53.150;6.370;2023-01-13T12:17:16;8.60;99.90
52509;DHT22;38420;53.150;6.370;2023-01-13T12:19:48;8.70;99.90
52509;DHT22;38420;53.150;6.370;2023-01-13T12:22:15;8.70;99.90
52509;DHT22;38420;53.150;6.370;2023-01-13T12:24:54;8.60;99.90
52509;DHT22;38420;53.150;6.370;2023-01-13T12:27:45;8.70;99.90
52509;DHT22;38420;53.150;6.370;2023-01-13T12:30:24;8.70;99.90
52509;DHT22;38420;53.150;6.370;2023-01-13T12:33:00;8.90;99.90
52509;DHT22;38420;53.150;6.370;2023-01-13T12:35:53;8.80;99.90
52509;DHT22;38420;53.150;6.370;2023-01-13T12:38:39;8.80;99.90
52509;DHT22;38420;53.150;6.370;2023-01-13T12:41:19;8.90;99.90
52509;DHT22;38420;53.150;6.370;2023-01-13T12:43:50;8.90;99.90
52509;DHT22;38420;53.150;6.370;2023-01-13T12:46:44;8.90;99.90
52509;DHT22;38420;53.150;6.370;2023-01-13T12:49:23;8.90;99.90
52509;DHT22;38420;53.150;6.370;2023-01-13T12:57:25;8.90;99.90
52509;DHT22;38420;53.150;6.370;2023-01-13T13:00:11;9.00;99.90
52509;DHT22;38420;53.150;6.370;2023-01-13T13:02:39;8.90;99.90
52509;DHT22;38420;53.150;6.370;2023-01-13T13:08:19;8.80;99.90
52509;DHT22;38420;53.150;6.370;2023-01-13T13:14:01;9.00;99.90
52509;DHT22;38420;53.150;6.370;2023-01-13T13:32:58;9.00;99.90
52509;DHT22;38420;53.150;6.370;2023-01-13T13:35:44;9.10;99.90
52509;DHT22;38420;53.150;6.370;2023-01-13T13:41:21;9.00;99.90
52509;DHT22;38420;53.150;6.370;2023-01-13T13:44:21;9.00;99.90
52509;DHT22;38420;53.150;6.370;2023-01-13T13:47:08;8.90;99.90
52509;DHT22;38420;53.150;6.370;2023-01-13T13:49:45;8.90;99.90
52509;DHT22;38420;53.150;6.370;2023-01-13T13:54:43;9.00;99.90
52509;DHT22;38420;53.150;6.370;2023-01-13T13:59:54;9.00;99.90
52509;DHT22;38420;53.150;6.370;2023-01-13T14:02:27;9.00;99.90
52509;DHT22;38420;53.150;6.370;2023-01-13T14:05:27;8.90;99.90
52509;DHT22;38420;53.150;6.370;2023-01-13T14:08:15;8.90;99.90
52509;DHT22;38420;53.150;6.370;2023-01-13T14:10:43;8.90;99.90
52509;DHT22;38420;53.150;6.370;2023-01-13T14:15:49;8.80;99.90
52509;DHT22;38420;53.150;6.370;2023-01-13T14:18:20;8.70;99.90
52509;DHT22;38420;53.150;6.370;2023-01-13T14:21:03;8.60;99.90
52509;DHT22;38420;53.150;6.370;2023-01-13T14:23:31;8.60;99.90
52509;DHT22;38420;53.150;6.370;2023-01-13T14:26:15;8.50;99.90
52509;DHT22;38420;53.150;6.370;2023-01-13T14:28:41;8.30;99.90
52509;DHT22;38420;53.150;6.370;2023-01-13T14:31:08;8.30;99.90
52509;DHT22;38420;53.150;6.370;2023-01-13T14:36:39;8.40;99.90
52509;DHT22;38420;53.150;6.370;2023-01-13T14:41:34;8.70;99.90
52509;DHT22;38420;53.150;6.370;2023-01-13T14:44:12;8.70;99.90
52509;DHT22;38420;53.150;6.370;2023-01-13T14:46:42;8.70;99.90
52509;DHT22;38420;53.150;6.370;2023-01-13T14:49:29;8.70;99.90
52509;DHT22;38420;53.150;6.370;2023-01-13T14:52:22;8.60;99.90
52509;DHT22;38420;53.150;6.370;2023-01-13T14:55:08;8.70;99.90
52509;DHT22;38420;53.150;6.370;2023-01-13T14:57:39;8.80;99.90
52509;DHT22;38420;53.150;6.370;2023-01-13T15:10:19;8.70;99.90
52509;DHT22;38420;53.150;6.370;2023-01-13T15:12:48;8.70;99.90
52509;DHT22;38420;53.150;6.370;2023-01-13T15:15:32;8.70;99.90
52509;DHT22;38420;53.150;6.370;2023-01-13T15:17:59;8.70;99.90
52509;DHT22;38420;53.150;6.370;2023-01-13T15:20:25;8.70;99.90
52509;DHT22;38420;53.150;6.370;2023-01-13T15:22:53;8.60;99.90
52509;DHT22;38420;53.150;6.370;2023-01-13T15:25:19;8.70;99.90
52509;DHT22;38420;53.150;6.370;2023-01-13T15:27:46;8.50;99.90
52509;DHT22;38420;53.150;6.370;2023-01-13T15:30:17;8.60;99.90
52509;DHT22;38420;53.150;6.370;2023-01-13T15:32:43;8.50;99.90
52509;DHT22;38420;53.150;6.370;2023-01-13T15:35:12;8.50;99.90
52509;DHT22;38420;53.150;6.370;2023-01-13T15:37:38;8.40;99.90
52509;DHT22;38420;53.150;6.370;2023-01-13T15:40:13;8.50;99.90
52509;DHT22;38420;53.150;6.370;2023-01-13T15:42:39;8.50;99.90
52509;DHT22;38420;53.150;6.370;2023-01-13T15:45:24;8.50;99.90
52509;DHT22;38420;53.150;6.370;2023-01-13T15:48:08;8.50;99.90
52509;DHT22;38420;53.150;6.370;2023-01-13T15:50:34;8.60;99.90
52509;DHT22;38420;53.150;6.370;2023-01-13T15:52:59;8.50;99.90
52509;DHT22;38420;53.150;6.370;2023-01-13T15:55:25;8.60;99.90
52509;DHT22;38420;53.150;6.370;2023-01-13T15:57:51;8.70;99.90
52509;DHT22;38420;53.150;6.370;2023-01-13T16:00:19;8.60;99.90
52509;DHT22;38420;53.150;6.370;2023-01-13T16:02:45;8.60;99.90
52509;DHT22;38420;53.150;6.370;2023-01-13T16:05:10;8.60;99.90
52509;DHT22;38420;53.150;6.370;2023-01-13T16:07:36;8.70;99.90
52509;DHT22;38420;53.150;6.370;2023-01-13T16:10:04;8.60;99.90
52509;DHT22;38420;53.150;6.370;2023-01-13T16:12:30;8.70;99.90
52509;DHT22;38420;53.150;6.370;2023-01-13T16:14:56;8.70;99.90
52509;DHT22;38420;53.150;6.370;2023-01-13T16:17:24;8.70;99.90
52509;DHT22;38420;53.150;6.370;2023-01-13T16:19:50;8.50;99.90
52509;DHT22;38420;53.150;6.370;2023-01-13T16:22:16;8.50;99.90
52509;DHT22;38420;53.150;6.370;2023-01-13T16:24:42;8.50;99.90
52509;DHT22;38420;53.150;6.370;2023-01-13T16:27:14;8.60;99.90
52509;DHT22;38420;53.150;6.370;2023-01-13T16:29:41;8.50;99.90
52509;DHT22;38420;53.150;6.370;2023-01-13T16:32:06;8.40;99.90
52509;DHT22;38420;53.150;6.370;2023-01-13T16:34:32;8.50;99.90
52509;DHT22;38420;53.150;6.370;2023-01-13T16:36:58;8.50;99.90
52509;DHT22;38420;53.150;6.370;2023-01-13T16:39:23;8.30;99.90
52509;DHT22;38420;53.150;6.370;2023-01-13T16:41:49;8.40;99.90
52509;DHT22;38420;53.150;6.370;2023-01-13T16:44:15;8.30;99.90
52509;DHT22;38420;53.150;6.370;2023-01-13T16:46:41;8.20;99.90
52509;DHT22;38420;53.150;6.370;2023-01-13T16:49:11;8.10;99.90
52509;DHT22;38420;53.150;6.370;2023-01-13T16:51:37;8.00;99.90
52509;DHT22;38420;53.150;6.370;2023-01-13T16:54:03;7.90;99.90
52509;DHT22;38420;53.150;6.370;2023-01-13T16:56:35;8.10;99.90
52509;DHT22;38420;53.150;6.370;2023-01-13T16:59:13;7.80;99.90
52509;DHT22;38420;53.150;6.370;2023-01-13T17:01:41;8.10;99.90
52509;DHT22;38420;53.150;6.370;2023-01-13T17:04:14;7.80;99.90
52509;DHT22;38420;53.150;6.370;2023-01-13T17:09:22;7.80;99.90
52509;DHT22;38420;53.150;6.370;2023-01-13T17:11:48;7.40;99.90
52509;DHT22;38420;53.150;6.370;2023-01-13T17:14:14;7.70;99.90
52509;DHT22;38420;53.150;6.370;2023-01-13T17:16:40;7.80;99.90
52509;DHT22;38420;53.150;6.370;2023-01-13T17:19:06;7.60;99.90
52509;DHT22;38420;53.150;6.370;2023-01-13T17:21:32;7.90;99.90
52509;DHT22;38420;53.150;6.370;2023-01-13T17:23:58;7.60;99.90
52509;DHT22;38420;53.150;6.370;2023-01-13T17:26:33;7.80;99.90
52509;DHT22;38420;53.150;6.370;2023-01-13T17:29:06;7.60;99.90
52509;DHT22;38420;53.150;6.370;2023-01-13T17:31:34;7.70;99.90
52509;DHT22;38420;53.150;6.370;2023-01-13T17:34:01;8.20;99.90
52509;DHT22;38420;53.150;6.370;2023-01-13T17:36:26;7.70;99.90
52509;DHT22;38420;53.150;6.370;2023-01-13T17:38:53;7.90;99.90
52509;DHT22;38420;53.150;6.370;2023-01-13T17:41:18;8.20;99.90
52509;DHT22;38420;53.150;6.370;2023-01-13T17:43:44;8.20;99.90
52509;DHT22;38420;53.150;6.370;2023-01-13T17:46:11;8.20;99.90
52509;DHT22;38420;53.150;6.370;2023-01-13T17:48:37;8.10;99.90
52509;DHT22;38420;53.150;6.370;2023-01-13T17:51:05;8.00;99.90
52509;DHT22;38420;53.150;6.370;2023-01-13T17:53:32;8.20;99.90
52509;DHT22;38420;53.150;6.370;2023-01-13T17:55:58;8.20;99.90
52509;DHT22;38420;53.150;6.370;2023-01-13T17:58:24;8.20;99.90
52509;DHT22;38420;53.150;6.370;2023-01-13T18:00:49;8.00;99.90
52509;DHT22;38420;53.150;6.370;2023-01-13T18:03:16;8.10;99.90
52509;DHT22;38420;53.150;6.370;2023-01-13T18:05:42;8.10;99.90
52509;DHT22;38420;53.150;6.370;2023-01-13T18:08:08;8.00;99.90
52509;DHT22;38420;53.150;6.370;2023-01-13T18:10:34;7.90;99.90
52509;DHT22;38420;53.150;6.370;2023-01-13T18:13:00;8.00;99.90